Miquan, China
Current Conditions -  °F | °C
As of 3:30 AM on Monday 24 Nov 2014 (Local Time) from ZWWW Reporting Station
Smoke Smoke  
Wind Chill: 17°   Ceiling: Unl
Heat Index: 23°   Visibility: 1.5mi
Dew Point: 21°   Wind: 4mph
Humidity: 93%   Direction: 90°E
Pressure: 30.06"   Gusts: NA
Location:  43.97°N, 87.7°E
Report Text: ZWWW 231930Z 09002MPS 2500 FU NSC M05/M06 Q1018 NOSIG
Loading
Personal Weather Stations






























Interactive Weather Map New forecast layout! Learn more

10-Day Weather Forecast

Advertisements
Track Severe Weather on mobile